Fulda, Indiana
Current Conditions -  °F | °C
As of 11:35 PM on Friday 19 Dec 2014 (Local Time) from KHNB Reporting Station
Few Clouds Few Clouds  
Wind Chill: 24°   Ceiling: Unl
Heat Index: 30°   Visibility: 10mi
Dew Point: 21°   Wind: 6mph
Humidity: 69%   Direction: 110°ESE
Pressure: 30.29"   Gusts: NA
Location:  38.11°N, 86.84°W
Report Text: KHNB 200535Z AUTO 11005KT 10SM FEW065 M01/M06 A3029 RMK AO1
Loading
Personal Weather Stations






























Interactive Weather Map New forecast layout! Learn more

10-Day Weather Forecast

Advertisements
Track Severe Weather on mobile